Portada
METAR-TAF:

METAR-TAF

Aeroports :

Mogadixo, Somàlia

latitud: 02-02N, longitud: 045-21E, altitud: 9 m

Observació

L'informe es va fer fa 9 hores i 41 minuts, a les 14:00 UTC
Vent 13 kt del Est
Temperatura 28°C
Humitat 70%
Pressió 1008 hPa
Visibilitat 10 km o més
Escasses núvols a una alçada de 2400 ft, Cumulus congestus.
Cel ennuvolat a una alçada de 8000 ft

METAR: HCMM 191400Z 08013KT 9999 FEW024TCU BKN080 28/22 Q1008

Hora: 02:41 (23:41 UTC)


TAF: manca

Observacions i pronòstics meteorològics de més de 4000 aeroports (METAR i TAF).

Les estacions disponibles són els punts grocs i vermells al mapa.

Posi el ratolí al punt desitjat per veure el nom de l'estació.

Feu clic per veure les observacions i els pronòstics meteorològics.

Per canviar el mapa: feu clic els botons verds amb una creu de color negre per apropar; al botó verd amb un guió per allunyar la imatge; o en les fletxes verdes per a mapes adjacents.


METAR-TAF: